sensor_id;sensor_type;location;lat;lon;timestamp;P1;P2;P0
13030;PMS7003;6582;54.644;9.760;2022-12-07T00:00:07;294.4;289.8;
13030;PMS7003;6582;54.644;9.760;2022-12-07T00:05:01;297.9;293.8;
13030;PMS7003;6582;54.644;9.760;2022-12-07T00:10:08;281.2;276.6;
13030;PMS7003;6582;54.644;9.760;2022-12-07T00:15:02;322.8;319.1;
13030;PMS7003;6582;54.644;9.760;2022-12-07T00:20:02;385.8;382.7;
13030;PMS7003;6582;54.644;9.760;2022-12-07T00:25:02;428.7;425.2;
13030;PMS7003;6582;54.644;9.760;2022-12-07T00:30:03;435.8;432.2;
13030;PMS7003;6582;54.644;9.760;2022-12-07T00:35:02;443.8;440.6;
13030;PMS7003;6582;54.644;9.760;2022-12-07T00:40:08;453.8;450.7;
13030;PMS7003;6582;54.644;9.760;2022-12-07T01:00:03;332.8;329.8;
13030;PMS7003;6582;54.644;9.760;2022-12-07T01:05:02;366.5;361.7;
13030;PMS7003;6582;54.644;9.760;2022-12-07T01:10:04;345.3;340.3;
13030;PMS7003;6582;54.644;9.760;2022-12-07T01:15:07;369.4;365.2;
13030;PMS7003;6582;54.644;9.760;2022-12-07T01:20:09;405.1;401.7;
13030;PMS7003;6582;54.644;9.760;2022-12-07T01:25:02;398.5;395.0;
13030;PMS7003;6582;54.644;9.760;2022-12-07T01:30:05;400.0;397.6;
13030;PMS7003;6582;54.644;9.760;2022-12-07T01:35:07;396.9;395.2;
13030;PMS7003;6582;54.644;9.760;2022-12-07T01:40:03;385.0;383.4;
13030;PMS7003;6582;54.644;9.760;2022-12-07T02:00:03;246.2;241.6;
13030;PMS7003;6582;54.644;9.760;2022-12-07T02:05:02;314.2;311.3;
13030;PMS7003;6582;54.644;9.760;2022-12-07T02:30:06;499.4;498.0;
13030;PMS7003;6582;54.644;9.760;2022-12-07T02:35:04;540.7;540.0;
13030;PMS7003;6582;54.644;9.760;2022-12-07T03:00:08;600.6;599.8;
13030;PMS7003;6582;54.644;9.760;2022-12-07T03:20:03;444.6;443.4;
13030;PMS7003;6582;54.644;9.760;2022-12-07T03:25:08;497.6;496.1;
13030;PMS7003;6582;54.644;9.760;2022-12-07T03:30:04;491.5;490.3;
13030;PMS7003;6582;54.644;9.760;2022-12-07T03:35:04;507.8;506.7;
13030;PMS7003;6582;54.644;9.760;2022-12-07T03:40:19;516.2;514.8;
13030;PMS7003;6582;54.644;9.760;2022-12-07T04:00:04;584.2;584.2;
13030;PMS7003;6582;54.644;9.760;2022-12-07T04:05:02;530.7;530.2;
13030;PMS7003;6582;54.644;9.760;2022-12-07T04:10:03;513.8;513.0;
13030;PMS7003;6582;54.644;9.760;2022-12-07T04:15:07;498.5;497.7;
13030;PMS7003;6582;54.644;9.760;2022-12-07T04:20:09;499.3;498.3;
13030;PMS7003;6582;54.644;9.760;2022-12-07T04:25:03;468.4;466.9;
13030;PMS7003;6582;54.644;9.760;2022-12-07T04:30:03;441.4;440.0;
13030;PMS7003;6582;54.644;9.760;2022-12-07T04:35:02;438.3;437.2;
13030;PMS7003;6582;54.644;9.760;2022-12-07T04:40:09;426.8;425.9;
13030;PMS7003;6582;54.644;9.760;2022-12-07T04:45:02;412.5;411.7;
13030;PMS7003;6582;54.644;9.760;2022-12-07T04:50:03;421.2;420.8;
13030;PMS7003;6582;54.644;9.760;2022-12-07T04:55:02;447.3;447.0;
13030;PMS7003;6582;54.644;9.760;2022-12-07T05:00:03;453.1;452.8;
13030;PMS7003;6582;54.644;9.760;2022-12-07T05:05:03;458.0;457.0;
13030;PMS7003;6582;54.644;9.760;2022-12-07T05:10:07;472.7;471.5;
13030;PMS7003;6582;54.644;9.760;2022-12-07T05:15:07;475.4;474.2;
13030;PMS7003;6582;54.644;9.760;2022-12-07T05:20:03;479.8;478.0;
13030;PMS7003;6582;54.644;9.760;2022-12-07T05:25:02;478.6;476.7;
13030;PMS7003;6582;54.644;9.760;2022-12-07T05:30:08;502.0;500.8;
13030;PMS7003;6582;54.644;9.760;2022-12-07T05:35:02;506.4;505.4;
13030;PMS7003;6582;54.644;9.760;2022-12-07T05:40:03;505.4;504.0;
13030;PMS7003;6582;54.644;9.760;2022-12-07T05:45:03;507.6;506.8;
13030;PMS7003;6582;54.644;9.760;2022-12-07T05:50:04;509.1;508.4;
13030;PMS7003;6582;54.644;9.760;2022-12-07T05:55:02;504.7;504.0;
13030;PMS7003;6582;54.644;9.760;2022-12-07T06:00:08;492.6;491.7;
13030;PMS7003;6582;54.644;9.760;2022-12-07T06:05:02;493.5;493.0;
13030;PMS7003;6582;54.644;9.760;2022-12-07T06:10:07;493.6;493.2;
13030;PMS7003;6582;54.644;9.760;2022-12-07T06:15:07;495.2;494.7;
13030;PMS7003;6582;54.644;9.760;2022-12-07T06:20:09;494.9;494.4;
13030;PMS7003;6582;54.644;9.760;2022-12-07T06:25:14;515.5;515.5;
13030;PMS7003;6582;54.644;9.760;2022-12-07T06:30:08;494.2;494.0;
13030;PMS7003;6582;54.644;9.760;2022-12-07T06:35:02;489.2;489.0;
13030;PMS7003;6582;54.644;9.760;2022-12-07T06:40:03;493.3;492.8;
13030;PMS7003;6582;54.644;9.760;2022-12-07T06:45:01;478.1;477.5;
13030;PMS7003;6582;54.644;9.760;2022-12-07T06:50:07;455.2;454.1;
13030;PMS7003;6582;54.644;9.760;2022-12-07T06:55:01;480.7;479.5;
13030;PMS7003;6582;54.644;9.760;2022-12-07T07:00:03;488.3;487.1;
13030;PMS7003;6582;54.644;9.760;2022-12-07T07:05:02;473.7;472.6;
13030;PMS7003;6582;54.644;9.760;2022-12-07T07:10:03;448.5;447.2;
13030;PMS7003;6582;54.644;9.760;2022-12-07T07:15:02;440.6;439.4;
13030;PMS7003;6582;54.644;9.760;2022-12-07T07:20:03;430.3;429.4;
13030;PMS7003;6582;54.644;9.760;2022-12-07T07:25:02;398.0;396.9;
13030;PMS7003;6582;54.644;9.760;2022-12-07T07:30:03;382.9;381.8;
13030;PMS7003;6582;54.644;9.760;2022-12-07T07:35:07;400.7;399.8;
13030;PMS7003;6582;54.644;9.760;2022-12-07T07:40:03;389.2;388.3;
13030;PMS7003;6582;54.644;9.760;2022-12-07T07:45:02;380.2;379.3;
13030;PMS7003;6582;54.644;9.760;2022-12-07T07:50:04;398.5;397.7;
13030;PMS7003;6582;54.644;9.760;2022-12-07T07:55:02;386.5;384.8;
13030;PMS7003;6582;54.644;9.760;2022-12-07T08:00:04;381.8;380.3;
13030;PMS7003;6582;54.644;9.760;2022-12-07T08:05:02;380.6;378.8;
13030;PMS7003;6582;54.644;9.760;2022-12-07T08:10:04;384.8;383.0;
13030;PMS7003;6582;54.644;9.760;2022-12-07T08:15:02;388.1;386.2;
13030;PMS7003;6582;54.644;9.760;2022-12-07T08:20:07;400.0;398.8;
13030;PMS7003;6582;54.644;9.760;2022-12-07T08:25:02;376.2;375.0;
13030;PMS7003;6582;54.644;9.760;2022-12-07T08:30:03;363.9;363.0;
13030;PMS7003;6582;54.644;9.760;2022-12-07T08:35:02;355.8;354.9;
13030;PMS7003;6582;54.644;9.760;2022-12-07T08:40:03;309.9;307.9;
13030;PMS7003;6582;54.644;9.760;2022-12-07T08:45:01;288.4;286.2;
13030;PMS7003;6582;54.644;9.760;2022-12-07T08:50:03;286.6;283.0;
13030;PMS7003;6582;54.644;9.760;2022-12-07T08:55:04;273.0;268.6;
13030;PMS7003;6582;54.644;9.760;2022-12-07T09:00:03;244.2;238.1;
13030;PMS7003;6582;54.644;9.760;2022-12-07T09:05:02;281.1;276.1;
13030;PMS7003;6582;54.644;9.760;2022-12-07T09:10:07;288.8;283.1;
13030;PMS7003;6582;54.644;9.760;2022-12-07T09:15:07;289.8;283.7;
13030;PMS7003;6582;54.644;9.760;2022-12-07T09:20:08;285.8;279.1;
13030;PMS7003;6582;54.644;9.760;2022-12-07T09:25:02;277.6;270.3;
13030;PMS7003;6582;54.644;9.760;2022-12-07T09:30:04;270.5;262.9;
13030;PMS7003;6582;54.644;9.760;2022-12-07T09:35:07;300.2;293.6;
13030;PMS7003;6582;54.644;9.760;2022-12-07T09:40:02;324.4;319.3;
13030;PMS7003;6582;54.644;9.760;2022-12-07T09:45:04;366.4;362.8;
13030;PMS7003;6582;54.644;9.760;2022-12-07T09:50:04;405.0;403.7;
13030;PMS7003;6582;54.644;9.760;2022-12-07T09:55:12;411.3;410.1;
13030;PMS7003;6582;54.644;9.760;2022-12-07T10:00:04;400.4;398.8;
13030;PMS7003;6582;54.644;9.760;2022-12-07T10:05:17;411.2;409.5;
13030;PMS7003;6582;54.644;9.760;2022-12-07T10:30:03;459.0;458.4;
13030;PMS7003;6582;54.644;9.760;2022-12-07T11:10:22;245.4;240.8;
13030;PMS7003;6582;54.644;9.760;2022-12-07T11:30:08;257.2;251.6;
13030;PMS7003;6582;54.644;9.760;2022-12-07T11:35:14;271.1;263.9;
13030;PMS7003;6582;54.644;9.760;2022-12-07T11:40:05;275.1;268.1;
13030;PMS7003;6582;54.644;9.760;2022-12-07T11:45:09;274.5;269.2;
13030;PMS7003;6582;54.644;9.760;2022-12-07T11:50:14;276.4;270.9;
13030;PMS7003;6582;54.644;9.760;2022-12-07T12:10:05;363.2;359.8;
13030;PMS7003;6582;54.644;9.760;2022-12-07T12:30:03;436.6;436.6;
13030;PMS7003;6582;54.644;9.760;2022-12-07T12:35:20;380.1;377.9;
13030;PMS7003;6582;54.644;9.760;2022-12-07T13:10:02;352.4;351.6;
13030;PMS7003;6582;54.644;9.760;2022-12-07T13:15:03;376.1;375.7;
13030;PMS7003;6582;54.644;9.760;2022-12-07T13:20:02;386.5;386.2;
13030;PMS7003;6582;54.644;9.760;2022-12-07T13:40:17;432.8;432.8;
13030;PMS7003;6582;54.644;9.760;2022-12-07T14:00:03;409.6;409.6;
13030;PMS7003;6582;54.644;9.760;2022-12-07T14:05:08;375.0;373.9;
13030;PMS7003;6582;54.644;9.760;2022-12-07T14:10:03;366.3;365.6;
13030;PMS7003;6582;54.644;9.760;2022-12-07T14:15:03;376.2;375.6;
13030;PMS7003;6582;54.644;9.760;2022-12-07T14:20:03;374.2;373.8;
13030;PMS7003;6582;54.644;9.760;2022-12-07T14:40:04;366.4;366.4;
13030;PMS7003;6582;54.644;9.760;2022-12-07T14:45:03;353.0;353.0;
13030;PMS7003;6582;54.644;9.760;2022-12-07T14:50:13;335.8;335.2;
13030;PMS7003;6582;54.644;9.760;2022-12-07T15:10:02;334.2;334.2;
13030;PMS7003;6582;54.644;9.760;2022-12-07T15:15:04;294.7;293.2;
13030;PMS7003;6582;54.644;9.760;2022-12-07T15:20:02;275.3;272.6;
13030;PMS7003;6582;54.644;9.760;2022-12-07T15:25:04;271.8;268.7;
13030;PMS7003;6582;54.644;9.760;2022-12-07T15:30:02;269.1;265.2;
13030;PMS7003;6582;54.644;9.760;2022-12-07T15:35:03;251.7;245.9;
13030;PMS7003;6582;54.644;9.760;2022-12-07T15:40:09;252.5;246.4;
13030;PMS7003;6582;54.644;9.760;2022-12-07T15:45:04;265.5;260.4;
13030;PMS7003;6582;54.644;9.760;2022-12-07T15:50:07;269.2;264.7;
13030;PMS7003;6582;54.644;9.760;2022-12-07T15:55:03;276.6;273.6;
13030;PMS7003;6582;54.644;9.760;2022-12-07T16:00:01;292.6;291.5;
13030;PMS7003;6582;54.644;9.760;2022-12-07T16:05:03;309.7;309.4;
13030;PMS7003;6582;54.644;9.760;2022-12-07T16:10:06;320.7;319.8;
13030;PMS7003;6582;54.644;9.760;2022-12-07T16:15:03;330.5;329.9;
13030;PMS7003;6582;54.644;9.760;2022-12-07T16:20:03;350.9;350.4;
13030;PMS7003;6582;54.644;9.760;2022-12-07T16:25:03;346.9;346.0;
13030;PMS7003;6582;54.644;9.760;2022-12-07T16:30:07;354.8;353.9;
13030;PMS7003;6582;54.644;9.760;2022-12-07T16:35:08;364.3;363.6;
13030;PMS7003;6582;54.644;9.760;2022-12-07T16:40:01;373.2;372.4;
13030;PMS7003;6582;54.644;9.760;2022-12-07T16:45:03;382.4;381.4;
13030;PMS7003;6582;54.644;9.760;2022-12-07T16:50:05;386.9;386.1;
13030;PMS7003;6582;54.644;9.760;2022-12-07T16:55:02;395.0;394.2;
13030;PMS7003;6582;54.644;9.760;2022-12-07T17:00:01;392.2;391.7;
13030;PMS7003;6582;54.644;9.760;2022-12-07T17:05:03;447.1;446.6;
13030;PMS7003;6582;54.644;9.760;2022-12-07T17:10:01;440.1;439.8;
13030;PMS7003;6582;54.644;9.760;2022-12-07T17:15:11;459.2;459.2;
13030;PMS7003;6582;54.644;9.760;2022-12-07T17:20:01;456.2;456.1;
13030;PMS7003;6582;54.644;9.760;2022-12-07T17:25:03;463.2;462.7;
13030;PMS7003;6582;54.644;9.760;2022-12-07T17:30:03;416.3;415.6;
13030;PMS7003;6582;54.644;9.760;2022-12-07T17:35:07;417.0;415.9;
13030;PMS7003;6582;54.644;9.760;2022-12-07T17:40:01;410.6;409.5;
13030;PMS7003;6582;54.644;9.760;2022-12-07T17:45:03;416.9;415.7;
13030;PMS7003;6582;54.644;9.760;2022-12-07T17:50:08;430.2;429.4;
13030;PMS7003;6582;54.644;9.760;2022-12-07T17:55:03;447.4;446.8;
13030;PMS7003;6582;54.644;9.760;2022-12-07T18:00:02;441.8;440.5;
13030;PMS7003;6582;54.644;9.760;2022-12-07T18:05:03;456.7;454.8;
13030;PMS7003;6582;54.644;9.760;2022-12-07T18:10:01;434.4;431.9;
13030;PMS7003;6582;54.644;9.760;2022-12-07T18:15:03;446.0;443.6;
13030;PMS7003;6582;54.644;9.760;2022-12-07T18:20:01;438.0;435.0;
13030;PMS7003;6582;54.644;9.760;2022-12-07T18:25:02;467.4;465.5;
13030;PMS7003;6582;54.644;9.760;2022-12-07T18:30:01;439.5;437.5;
13030;PMS7003;6582;54.644;9.760;2022-12-07T18:35:03;441.7;439.6;
13030;PMS7003;6582;54.644;9.760;2022-12-07T18:40:07;411.5;408.6;
13030;PMS7003;6582;54.644;9.760;2022-12-07T18:45:03;427.2;424.8;
13030;PMS7003;6582;54.644;9.760;2022-12-07T18:50:02;386.2;383.1;
13030;PMS7003;6582;54.644;9.760;2022-12-07T18:55:03;425.2;422.8;
13030;PMS7003;6582;54.644;9.760;2022-12-07T19:00:02;463.0;461.4;
13030;PMS7003;6582;54.644;9.760;2022-12-07T19:05:03;445.3;443.4;
13030;PMS7003;6582;54.644;9.760;2022-12-07T19:10:07;423.4;420.9;
13030;PMS7003;6582;54.644;9.760;2022-12-07T19:15:03;431.1;428.4;
13030;PMS7003;6582;54.644;9.760;2022-12-07T19:20:01;396.9;393.5;
13030;PMS7003;6582;54.644;9.760;2022-12-07T19:25:04;359.6;355.4;
13030;PMS7003;6582;54.644;9.760;2022-12-07T19:30:01;385.0;381.5;
13030;PMS7003;6582;54.644;9.760;2022-12-07T19:35:04;362.2;358.9;
13030;PMS7003;6582;54.644;9.760;2022-12-07T19:40:01;363.3;360.2;
13030;PMS7003;6582;54.644;9.760;2022-12-07T19:45:07;398.2;395.9;
13030;PMS7003;6582;54.644;9.760;2022-12-07T19:50:07;408.1;406.1;
13030;PMS7003;6582;54.644;9.760;2022-12-07T19:55:03;383.9;381.9;
13030;PMS7003;6582;54.644;9.760;2022-12-07T20:00:02;387.3;385.1;
13030;PMS7003;6582;54.644;9.760;2022-12-07T20:05:07;421.2;419.6;
13030;PMS7003;6582;54.644;9.760;2022-12-07T20:10:01;415.4;413.3;
13030;PMS7003;6582;54.644;9.760;2022-12-07T20:15:11;423.9;421.2;
13030;PMS7003;6582;54.644;9.760;2022-12-07T20:20:01;469.9;467.5;
13030;PMS7003;6582;54.644;9.760;2022-12-07T20:25:02;490.3;487.6;
13030;PMS7003;6582;54.644;9.760;2022-12-07T20:30:01;504.9;502.3;
13030;PMS7003;6582;54.644;9.760;2022-12-07T20:35:03;494.0;491.8;
13030;PMS7003;6582;54.644;9.760;2022-12-07T20:40:01;466.2;465.0;
13030;PMS7003;6582;54.644;9.760;2022-12-07T20:45:09;449.4;447.7;
13030;PMS7003;6582;54.644;9.760;2022-12-07T20:50:03;455.7;454.9;
13030;PMS7003;6582;54.644;9.760;2022-12-07T20:55:08;431.1;430.2;
13030;PMS7003;6582;54.644;9.760;2022-12-07T21:00:02;416.6;414.2;
13030;PMS7003;6582;54.644;9.760;2022-12-07T21:05:03;461.8;459.4;
13030;PMS7003;6582;54.644;9.760;2022-12-07T21:10:03;443.3;440.3;
13030;PMS7003;6582;54.644;9.760;2022-12-07T21:15:04;413.9;410.0;
13030;PMS7003;6582;54.644;9.760;2022-12-07T21:20:01;417.7;413.3;
13030;PMS7003;6582;54.644;9.760;2022-12-07T21:25:04;413.6;409.8;
13030;PMS7003;6582;54.644;9.760;2022-12-07T21:30:10;402.5;397.9;
13030;PMS7003;6582;54.644;9.760;2022-12-07T21:35:03;434.8;431.3;
13030;PMS7003;6582;54.644;9.760;2022-12-07T21:40:02;483.6;480.4;
13030;PMS7003;6582;54.644;9.760;2022-12-07T21:45:08;454.8;451.2;
13030;PMS7003;6582;54.644;9.760;2022-12-07T21:50:01;494.3;491.0;
13030;PMS7003;6582;54.644;9.760;2022-12-07T21:55:03;481.7;478.6;
13030;PMS7003;6582;54.644;9.760;2022-12-07T22:00:01;472.2;468.6;
13030;PMS7003;6582;54.644;9.760;2022-12-07T22:05:03;453.1;449.6;
13030;PMS7003;6582;54.644;9.760;2022-12-07T22:10:01;450.8;447.2;
13030;PMS7003;6582;54.644;9.760;2022-12-07T22:15:03;432.7;429.0;
13030;PMS7003;6582;54.644;9.760;2022-12-07T22:20:01;412.5;408.9;
13030;PMS7003;6582;54.644;9.760;2022-12-07T22:25:03;420.8;417.8;
13030;PMS7003;6582;54.644;9.760;2022-12-07T22:30:01;392.5;389.1;
13030;PMS7003;6582;54.644;9.760;2022-12-07T22:35:03;385.8;382.6;
13030;PMS7003;6582;54.644;9.760;2022-12-07T22:40:01;347.1;343.7;
13030;PMS7003;6582;54.644;9.760;2022-12-07T22:45:04;360.6;357.4;
13030;PMS7003;6582;54.644;9.760;2022-12-07T22:50:01;318.2;314.7;
13030;PMS7003;6582;54.644;9.760;2022-12-07T22:55:03;330.2;326.6;
13030;PMS7003;6582;54.644;9.760;2022-12-07T23:00:02;322.1;318.9;
13030;PMS7003;6582;54.644;9.760;2022-12-07T23:05:03;335.8;332.8;
13030;PMS7003;6582;54.644;9.760;2022-12-07T23:10:02;347.3;344.9;
13030;PMS7003;6582;54.644;9.760;2022-12-07T23:15:07;343.1;340.6;
13030;PMS7003;6582;54.644;9.760;2022-12-07T23:20:07;330.4;327.6;
13030;PMS7003;6582;54.644;9.760;2022-12-07T23:25:13;329.2;325.8;
13030;PMS7003;6582;54.644;9.760;2022-12-07T23:30:01;326.4;322.5;
13030;PMS7003;6582;54.644;9.760;2022-12-07T23:35:03;300.1;295.2;
13030;PMS7003;6582;54.644;9.760;2022-12-07T23:40:01;305.4;299.8;
13030;PMS7003;6582;54.644;9.760;2022-12-07T23:45:03;300.6;295.2;
13030;PMS7003;6582;54.644;9.760;2022-12-07T23:50:01;314.1;309.3;
13030;PMS7003;6582;54.644;9.760;2022-12-07T23:55:02;313.3;309.0;
